sensor_id;sensor_type;location;lat;lon;timestamp;P1;durP1;ratioP1;P2;durP2;ratioP2
4464;SDS011;2245;48.136;13.428;2022-10-22T00:02:08;12.30;;;9.70;;
4464;SDS011;2245;48.136;13.428;2022-10-22T00:04:43;14.53;;;9.90;;
4464;SDS011;2245;48.136;13.428;2022-10-22T00:07:31;15.67;;;10.37;;
4464;SDS011;2245;48.136;13.428;2022-10-22T00:10:05;11.53;;;8.97;;
4464;SDS011;2245;48.136;13.428;2022-10-22T00:12:49;15.27;;;9.80;;
4464;SDS011;2245;48.136;13.428;2022-10-22T00:15:40;14.00;;;10.03;;
4464;SDS011;2245;48.136;13.428;2022-10-22T00:18:08;11.93;;;8.57;;
4464;SDS011;2245;48.136;13.428;2022-10-22T00:20:39;17.33;;;11.93;;
4464;SDS011;2245;48.136;13.428;2022-10-22T00:23:10;16.37;;;10.03;;
4464;SDS011;2245;48.136;13.428;2022-10-22T00:25:38;12.60;;;8.90;;
4464;SDS011;2245;48.136;13.428;2022-10-22T00:28:10;14.77;;;9.97;;
4464;SDS011;2245;48.136;13.428;2022-10-22T00:30:54;12.47;;;9.40;;
4464;SDS011;2245;48.136;13.428;2022-10-22T00:33:26;15.13;;;9.77;;
4464;SDS011;2245;48.136;13.428;2022-10-22T00:36:04;14.93;;;9.17;;
4464;SDS011;2245;48.136;13.428;2022-10-22T00:38:38;8.97;;;7.60;;
4464;SDS011;2245;48.136;13.428;2022-10-22T00:41:07;10.50;;;8.33;;
4464;SDS011;2245;48.136;13.428;2022-10-22T00:43:57;12.20;;;7.67;;
4464;SDS011;2245;48.136;13.428;2022-10-22T00:46:33;17.83;;;8.50;;
4464;SDS011;2245;48.136;13.428;2022-10-22T00:49:11;8.10;;;6.97;;
4464;SDS011;2245;48.136;13.428;2022-10-22T00:51:40;11.30;;;7.30;;
4464;SDS011;2245;48.136;13.428;2022-10-22T00:54:14;11.93;;;7.90;;
4464;SDS011;2245;48.136;13.428;2022-10-22T00:56:44;8.97;;;7.77;;
4464;SDS011;2245;48.136;13.428;2022-10-22T00:59:15;12.27;;;7.13;;
4464;SDS011;2245;48.136;13.428;2022-10-22T01:01:49;12.97;;;7.50;;
4464;SDS011;2245;48.136;13.428;2022-10-22T01:04:17;17.80;;;8.20;;
4464;SDS011;2245;48.136;13.428;2022-10-22T01:06:49;11.77;;;6.60;;
4464;SDS011;2245;48.136;13.428;2022-10-22T01:09:35;12.50;;;7.57;;
4464;SDS011;2245;48.136;13.428;2022-10-22T01:12:10;9.20;;;5.63;;
4464;SDS011;2245;48.136;13.428;2022-10-22T01:14:45;8.13;;;6.87;;
4464;SDS011;2245;48.136;13.428;2022-10-22T01:17:33;8.80;;;5.33;;
4464;SDS011;2245;48.136;13.428;2022-10-22T01:20:09;11.37;;;5.77;;
4464;SDS011;2245;48.136;13.428;2022-10-22T01:22:59;12.97;;;6.20;;
4464;SDS011;2245;48.136;13.428;2022-10-22T01:25:45;6.10;;;5.43;;
4464;SDS011;2245;48.136;13.428;2022-10-22T01:28:44;8.20;;;5.67;;
4464;SDS011;2245;48.136;13.428;2022-10-22T01:31:21;12.50;;;5.63;;
4464;SDS011;2245;48.136;13.428;2022-10-22T01:37:24;10.40;;;5.10;;
4464;SDS011;2245;48.136;13.428;2022-10-22T01:39:55;10.80;;;5.50;;
4464;SDS011;2245;48.136;13.428;2022-10-22T01:42:33;7.00;;;4.77;;
4464;SDS011;2245;48.136;13.428;2022-10-22T01:45:04;6.30;;;4.17;;
4464;SDS011;2245;48.136;13.428;2022-10-22T01:47:42;5.73;;;4.90;;
4464;SDS011;2245;48.136;13.428;2022-10-22T01:53:15;6.33;;;3.80;;
4464;SDS011;2245;48.136;13.428;2022-10-22T01:55:48;9.00;;;5.20;;
4464;SDS011;2245;48.136;13.428;2022-10-22T01:58:23;5.70;;;5.10;;
4464;SDS011;2245;48.136;13.428;2022-10-22T02:01:02;9.97;;;4.93;;
4464;SDS011;2245;48.136;13.428;2022-10-22T02:03:33;6.17;;;4.20;;
4464;SDS011;2245;48.136;13.428;2022-10-22T02:06:11;4.43;;;3.40;;
4464;SDS011;2245;48.136;13.428;2022-10-22T02:08:45;7.47;;;3.93;;
4464;SDS011;2245;48.136;13.428;2022-10-22T02:11:16;11.23;;;4.30;;
4464;SDS011;2245;48.136;13.428;2022-10-22T02:14:05;6.20;;;4.53;;
4464;SDS011;2245;48.136;13.428;2022-10-22T02:16:37;5.33;;;3.60;;
4464;SDS011;2245;48.136;13.428;2022-10-22T02:19:09;4.30;;;3.40;;
4464;SDS011;2245;48.136;13.428;2022-10-22T02:21:55;4.47;;;3.80;;
4464;SDS011;2245;48.136;13.428;2022-10-22T02:24:27;15.93;;;4.57;;
4464;SDS011;2245;48.136;13.428;2022-10-22T02:27:03;4.50;;;3.87;;
4464;SDS011;2245;48.136;13.428;2022-10-22T02:29:36;12.20;;;3.30;;
4464;SDS011;2245;48.136;13.428;2022-10-22T02:32:06;4.90;;;2.83;;
4464;SDS011;2245;48.136;13.428;2022-10-22T02:34:35;5.60;;;3.00;;
4464;SDS011;2245;48.136;13.428;2022-10-22T02:37:02;4.10;;;2.63;;
4464;SDS011;2245;48.136;13.428;2022-10-22T02:39:39;3.73;;;2.47;;
4464;SDS011;2245;48.136;13.428;2022-10-22T02:42:27;3.10;;;2.80;;
4464;SDS011;2245;48.136;13.428;2022-10-22T02:44:56;4.43;;;3.00;;
4464;SDS011;2245;48.136;13.428;2022-10-22T02:47:34;3.50;;;2.90;;
4464;SDS011;2245;48.136;13.428;2022-10-22T02:50:08;7.07;;;3.50;;
4464;SDS011;2245;48.136;13.428;2022-10-22T02:52:46;7.83;;;5.40;;
4464;SDS011;2245;48.136;13.428;2022-10-22T02:55:23;9.57;;;5.93;;
4464;SDS011;2245;48.136;13.428;2022-10-22T02:58:06;9.13;;;6.43;;
4464;SDS011;2245;48.136;13.428;2022-10-22T03:00:47;9.77;;;6.40;;
4464;SDS011;2245;48.136;13.428;2022-10-22T03:03:22;12.90;;;7.70;;
4464;SDS011;2245;48.136;13.428;2022-10-22T03:05:49;11.17;;;7.03;;
4464;SDS011;2245;48.136;13.428;2022-10-22T03:11:38;16.83;;;9.97;;
4464;SDS011;2245;48.136;13.428;2022-10-22T03:14:13;16.17;;;9.77;;
4464;SDS011;2245;48.136;13.428;2022-10-22T03:16:42;19.33;;;11.37;;
4464;SDS011;2245;48.136;13.428;2022-10-22T03:19:13;16.70;;;10.03;;
4464;SDS011;2245;48.136;13.428;2022-10-22T03:21:44;17.77;;;11.90;;
4464;SDS011;2245;48.136;13.428;2022-10-22T03:24:29;23.60;;;15.10;;
4464;SDS011;2245;48.136;13.428;2022-10-22T03:27:03;18.83;;;12.50;;
4464;SDS011;2245;48.136;13.428;2022-10-22T03:29:41;22.87;;;12.77;;
4464;SDS011;2245;48.136;13.428;2022-10-22T03:32:17;18.07;;;12.33;;
4464;SDS011;2245;48.136;13.428;2022-10-22T03:34:47;16.90;;;11.97;;
4464;SDS011;2245;48.136;13.428;2022-10-22T03:37:21;20.13;;;10.60;;
4464;SDS011;2245;48.136;13.428;2022-10-22T03:40:00;15.73;;;12.00;;
4464;SDS011;2245;48.136;13.428;2022-10-22T03:42:29;19.37;;;12.47;;
4464;SDS011;2245;48.136;13.428;2022-10-22T03:45:10;14.07;;;10.00;;
4464;SDS011;2245;48.136;13.428;2022-10-22T03:47:39;23.83;;;11.50;;
4464;SDS011;2245;48.136;13.428;2022-10-22T03:50:08;18.80;;;10.90;;
4464;SDS011;2245;48.136;13.428;2022-10-22T03:52:36;13.27;;;8.70;;
4464;SDS011;2245;48.136;13.428;2022-10-22T03:55:06;5.20;;;4.70;;
4464;SDS011;2245;48.136;13.428;2022-10-22T03:57:36;7.10;;;3.93;;
4464;SDS011;2245;48.136;13.428;2022-10-22T04:00:06;6.60;;;4.40;;
4464;SDS011;2245;48.136;13.428;2022-10-22T04:02:40;7.13;;;4.27;;
4464;SDS011;2245;48.136;13.428;2022-10-22T04:05:14;4.70;;;3.60;;
4464;SDS011;2245;48.136;13.428;2022-10-22T04:07:47;3.70;;;3.13;;
4464;SDS011;2245;48.136;13.428;2022-10-22T04:10:15;9.83;;;3.83;;
4464;SDS011;2245;48.136;13.428;2022-10-22T04:12:45;11.23;;;4.33;;
4464;SDS011;2245;48.136;13.428;2022-10-22T04:15:16;31.97;;;6.57;;
4464;SDS011;2245;48.136;13.428;2022-10-22T04:17:45;53.47;;;8.23;;
4464;SDS011;2245;48.136;13.428;2022-10-22T04:20:16;44.00;;;6.53;;
4464;SDS011;2245;48.136;13.428;2022-10-22T04:22:47;47.30;;;8.63;;
4464;SDS011;2245;48.136;13.428;2022-10-22T04:25:17;34.00;;;9.40;;
4464;SDS011;2245;48.136;13.428;2022-10-22T04:27:52;45.00;;;8.50;;
4464;SDS011;2245;48.136;13.428;2022-10-22T04:30:23;46.67;;;8.80;;
4464;SDS011;2245;48.136;13.428;2022-10-22T04:32:56;45.20;;;7.13;;
4464;SDS011;2245;48.136;13.428;2022-10-22T04:35:31;24.63;;;7.80;;
4464;SDS011;2245;48.136;13.428;2022-10-22T04:41:22;53.57;;;9.83;;
4464;SDS011;2245;48.136;13.428;2022-10-22T04:43:51;55.17;;;9.70;;
4464;SDS011;2245;48.136;13.428;2022-10-22T04:46:23;49.70;;;9.60;;
4464;SDS011;2245;48.136;13.428;2022-10-22T04:49:04;36.00;;;7.00;;
4464;SDS011;2245;48.136;13.428;2022-10-22T04:51:38;33.27;;;7.87;;
4464;SDS011;2245;48.136;13.428;2022-10-22T04:54:06;31.23;;;7.33;;
4464;SDS011;2245;48.136;13.428;2022-10-22T04:56:36;27.60;;;6.13;;
4464;SDS011;2245;48.136;13.428;2022-10-22T04:59:04;20.27;;;5.00;;
4464;SDS011;2245;48.136;13.428;2022-10-22T05:01:34;23.30;;;5.23;;
4464;SDS011;2245;48.136;13.428;2022-10-22T05:04:07;10.50;;;4.43;;
4464;SDS011;2245;48.136;13.428;2022-10-22T05:06:42;8.10;;;3.80;;
4464;SDS011;2245;48.136;13.428;2022-10-22T05:09:26;7.27;;;3.87;;
4464;SDS011;2245;48.136;13.428;2022-10-22T05:11:58;10.20;;;4.10;;
4464;SDS011;2245;48.136;13.428;2022-10-22T05:14:32;9.40;;;4.90;;
4464;SDS011;2245;48.136;13.428;2022-10-22T05:16:59;6.00;;;4.77;;
4464;SDS011;2245;48.136;13.428;2022-10-22T05:19:35;10.03;;;5.73;;
4464;SDS011;2245;48.136;13.428;2022-10-22T05:22:10;17.20;;;6.53;;
4464;SDS011;2245;48.136;13.428;2022-10-22T05:24:39;18.37;;;5.80;;
4464;SDS011;2245;48.136;13.428;2022-10-22T05:27:13;23.10;;;7.50;;
4464;SDS011;2245;48.136;13.428;2022-10-22T05:29:44;14.97;;;6.57;;
4464;SDS011;2245;48.136;13.428;2022-10-22T05:32:13;16.53;;;7.70;;
4464;SDS011;2245;48.136;13.428;2022-10-22T05:34:40;16.60;;;6.80;;
4464;SDS011;2245;48.136;13.428;2022-10-22T05:37:13;14.17;;;6.73;;
4464;SDS011;2245;48.136;13.428;2022-10-22T05:39:45;16.73;;;6.77;;
4464;SDS011;2245;48.136;13.428;2022-10-22T05:42:12;29.73;;;7.80;;
4464;SDS011;2245;48.136;13.428;2022-10-22T05:44:40;16.83;;;7.20;;
4464;SDS011;2245;48.136;13.428;2022-10-22T05:47:18;7.50;;;5.67;;
4464;SDS011;2245;48.136;13.428;2022-10-22T05:56:32;7.97;;;5.23;;
4464;SDS011;2245;48.136;13.428;2022-10-22T05:59:01;5.97;;;4.60;;
4464;SDS011;2245;48.136;13.428;2022-10-22T06:01:30;8.50;;;4.77;;
4464;SDS011;2245;48.136;13.428;2022-10-22T06:04:00;67.87;;;8.40;;
4464;SDS011;2245;48.136;13.428;2022-10-22T06:06:37;17.60;;;5.57;;
4464;SDS011;2245;48.136;13.428;2022-10-22T06:09:10;4.70;;;3.43;;
4464;SDS011;2245;48.136;13.428;2022-10-22T06:11:45;6.93;;;3.20;;
4464;SDS011;2245;48.136;13.428;2022-10-22T06:14:15;21.87;;;5.00;;
4464;SDS011;2245;48.136;13.428;2022-10-22T06:16:47;8.93;;;3.13;;
4464;SDS011;2245;48.136;13.428;2022-10-22T06:19:15;4.83;;;2.60;;
4464;SDS011;2245;48.136;13.428;2022-10-22T06:21:49;15.13;;;3.47;;
4464;SDS011;2245;48.136;13.428;2022-10-22T06:24:20;21.20;;;3.87;;
4464;SDS011;2245;48.136;13.428;2022-10-22T06:26:52;3.40;;;2.57;;
4464;SDS011;2245;48.136;13.428;2022-10-22T06:29:24;6.00;;;2.63;;
4464;SDS011;2245;48.136;13.428;2022-10-22T06:31:53;3.50;;;2.00;;
4464;SDS011;2245;48.136;13.428;2022-10-22T06:34:31;3.07;;;1.30;;
4464;SDS011;2245;48.136;13.428;2022-10-22T06:37:02;3.30;;;1.20;;
4464;SDS011;2245;48.136;13.428;2022-10-22T06:39:32;2.90;;;1.00;;
4464;SDS011;2245;48.136;13.428;2022-10-22T06:41:59;1.60;;;1.10;;
4464;SDS011;2245;48.136;13.428;2022-10-22T06:44:28;2.43;;;1.33;;
4464;SDS011;2245;48.136;13.428;2022-10-22T06:47:04;1.63;;;1.00;;
4464;SDS011;2245;48.136;13.428;2022-10-22T06:49:46;2.17;;;1.33;;
4464;SDS011;2245;48.136;13.428;2022-10-22T06:52:24;1.03;;;0.90;;
4464;SDS011;2245;48.136;13.428;2022-10-22T06:55:00;2.83;;;0.97;;
4464;SDS011;2245;48.136;13.428;2022-10-22T06:57:30;6.97;;;1.83;;
4464;SDS011;2245;48.136;13.428;2022-10-22T07:00:05;2.50;;;1.23;;
4464;SDS011;2245;48.136;13.428;2022-10-22T07:02:42;2.00;;;0.70;;
4464;SDS011;2245;48.136;13.428;2022-10-22T07:05:12;15.03;;;6.60;;
4464;SDS011;2245;48.136;13.428;2022-10-22T07:07:42;39.47;;;17.20;;
4464;SDS011;2245;48.136;13.428;2022-10-22T07:10:24;40.47;;;21.07;;
4464;SDS011;2245;48.136;13.428;2022-10-22T07:16:25;8.07;;;5.10;;
4464;SDS011;2245;48.136;13.428;2022-10-22T07:18:53;6.27;;;4.80;;
4464;SDS011;2245;48.136;13.428;2022-10-22T07:21:22;21.40;;;11.40;;
4464;SDS011;2245;48.136;13.428;2022-10-22T07:23:51;44.80;;;22.53;;
4464;SDS011;2245;48.136;13.428;2022-10-22T07:26:28;30.93;;;13.73;;
4464;SDS011;2245;48.136;13.428;2022-10-22T07:29:45;30.37;;;13.50;;
4464;SDS011;2245;48.136;13.428;2022-10-22T07:32:24;50.50;;;20.03;;
4464;SDS011;2245;48.136;13.428;2022-10-22T07:34:51;78.77;;;28.00;;
4464;SDS011;2245;48.136;13.428;2022-10-22T07:37:23;49.97;;;23.97;;
4464;SDS011;2245;48.136;13.428;2022-10-22T07:39:52;39.00;;;17.73;;
4464;SDS011;2245;48.136;13.428;2022-10-22T07:42:29;22.70;;;14.10;;
4464;SDS011;2245;48.136;13.428;2022-10-22T07:45:02;20.20;;;14.70;;
4464;SDS011;2245;48.136;13.428;2022-10-22T07:47:29;14.67;;;7.83;;
4464;SDS011;2245;48.136;13.428;2022-10-22T07:50:04;8.90;;;6.00;;
4464;SDS011;2245;48.136;13.428;2022-10-22T07:52:35;11.70;;;7.83;;
4464;SDS011;2245;48.136;13.428;2022-10-22T07:55:03;5.90;;;3.87;;
4464;SDS011;2245;48.136;13.428;2022-10-22T07:57:32;12.80;;;8.70;;
4464;SDS011;2245;48.136;13.428;2022-10-22T08:00:01;14.97;;;7.80;;
4464;SDS011;2245;48.136;13.428;2022-10-22T08:02:36;11.53;;;6.80;;
4464;SDS011;2245;48.136;13.428;2022-10-22T08:05:03;22.23;;;12.90;;
4464;SDS011;2245;48.136;13.428;2022-10-22T08:07:37;23.50;;;13.10;;
4464;SDS011;2245;48.136;13.428;2022-10-22T08:10:07;15.90;;;8.93;;
4464;SDS011;2245;48.136;13.428;2022-10-22T08:12:46;17.23;;;9.50;;
4464;SDS011;2245;48.136;13.428;2022-10-22T08:15:15;32.63;;;16.77;;
4464;SDS011;2245;48.136;13.428;2022-10-22T08:17:54;25.00;;;13.07;;
4464;SDS011;2245;48.136;13.428;2022-10-22T08:20:35;25.03;;;14.43;;
4464;SDS011;2245;48.136;13.428;2022-10-22T08:23:04;11.70;;;2.60;;
4464;SDS011;2245;48.136;13.428;2022-10-22T08:25:34;4.70;;;1.30;;
4464;SDS011;2245;48.136;13.428;2022-10-22T08:28:08;1.13;;;1.13;;
4464;SDS011;2245;48.136;13.428;2022-10-22T08:30:49;1.20;;;1.10;;
4464;SDS011;2245;48.136;13.428;2022-10-22T08:33:24;1.20;;;1.17;;
4464;SDS011;2245;48.136;13.428;2022-10-22T08:35:51;1.70;;;1.00;;
4464;SDS011;2245;48.136;13.428;2022-10-22T08:38:31;6.97;;;1.10;;
4464;SDS011;2245;48.136;13.428;2022-10-22T08:41:02;1.10;;;1.00;;
4464;SDS011;2245;48.136;13.428;2022-10-22T08:47:05;4.17;;;1.53;;
4464;SDS011;2245;48.136;13.428;2022-10-22T08:49:51;1.80;;;1.40;;
4464;SDS011;2245;48.136;13.428;2022-10-22T08:52:19;1.80;;;1.40;;
4464;SDS011;2245;48.136;13.428;2022-10-22T08:55:13;1.30;;;1.30;;
4464;SDS011;2245;48.136;13.428;2022-10-22T08:57:49;2.60;;;1.77;;
4464;SDS011;2245;48.136;13.428;2022-10-22T09:00:29;3.20;;;1.30;;
4464;SDS011;2245;48.136;13.428;2022-10-22T09:03:06;3.37;;;1.10;;
4464;SDS011;2245;48.136;13.428;2022-10-22T09:05:52;4.47;;;1.30;;
4464;SDS011;2245;48.136;13.428;2022-10-22T09:08:32;3.83;;;1.30;;
4464;SDS011;2245;48.136;13.428;2022-10-22T09:11:25;2.50;;;1.50;;
4464;SDS011;2245;48.136;13.428;2022-10-22T09:14:14;10.00;;;1.90;;
4464;SDS011;2245;48.136;13.428;2022-10-22T09:20:10;9.00;;;2.13;;
4464;SDS011;2245;48.136;13.428;2022-10-22T09:22:57;1.63;;;1.40;;
4464;SDS011;2245;48.136;13.428;2022-10-22T09:25:31;6.17;;;3.20;;
4464;SDS011;2245;48.136;13.428;2022-10-22T09:28:18;10.30;;;3.03;;
4464;SDS011;2245;48.136;13.428;2022-10-22T09:30:44;6.40;;;2.80;;
4464;SDS011;2245;48.136;13.428;2022-10-22T09:33:14;10.13;;;2.83;;
4464;SDS011;2245;48.136;13.428;2022-10-22T09:41:54;9.87;;;5.20;;
4464;SDS011;2245;48.136;13.428;2022-10-22T09:44:21;26.57;;;4.77;;
4464;SDS011;2245;48.136;13.428;2022-10-22T09:46:53;13.33;;;4.33;;
4464;SDS011;2245;48.136;13.428;2022-10-22T09:49:25;8.60;;;3.80;;
4464;SDS011;2245;48.136;13.428;2022-10-22T09:52:06;28.97;;;4.17;;
4464;SDS011;2245;48.136;13.428;2022-10-22T09:54:53;21.43;;;6.60;;
4464;SDS011;2245;48.136;13.428;2022-10-22T09:57:23;19.40;;;4.57;;
4464;SDS011;2245;48.136;13.428;2022-10-22T09:59:53;20.30;;;4.30;;
4464;SDS011;2245;48.136;13.428;2022-10-22T10:02:26;38.23;;;5.80;;
4464;SDS011;2245;48.136;13.428;2022-10-22T10:05:00;12.97;;;4.87;;
4464;SDS011;2245;48.136;13.428;2022-10-22T10:07:35;25.00;;;5.07;;
4464;SDS011;2245;48.136;13.428;2022-10-22T10:10:09;16.33;;;5.73;;
4464;SDS011;2245;48.136;13.428;2022-10-22T10:12:49;17.33;;;4.87;;
4464;SDS011;2245;48.136;13.428;2022-10-22T10:15:31;10.23;;;4.33;;
4464;SDS011;2245;48.136;13.428;2022-10-22T10:18:11;13.23;;;7.07;;
4464;SDS011;2245;48.136;13.428;2022-10-22T10:20:55;11.97;;;8.60;;
4464;SDS011;2245;48.136;13.428;2022-10-22T10:23:30;8.87;;;3.57;;
4464;SDS011;2245;48.136;13.428;2022-10-22T10:26:02;11.07;;;5.57;;
4464;SDS011;2245;48.136;13.428;2022-10-22T10:31:39;6.20;;;3.60;;
4464;SDS011;2245;48.136;13.428;2022-10-22T10:34:19;3.37;;;2.53;;
4464;SDS011;2245;48.136;13.428;2022-10-22T10:36:56;3.80;;;2.57;;
4464;SDS011;2245;48.136;13.428;2022-10-22T10:39:36;4.27;;;2.60;;
4464;SDS011;2245;48.136;13.428;2022-10-22T10:42:09;3.97;;;2.53;;
4464;SDS011;2245;48.136;13.428;2022-10-22T10:44:49;3.37;;;3.07;;
4464;SDS011;2245;48.136;13.428;2022-10-22T10:47:28;2.40;;;2.20;;
4464;SDS011;2245;48.136;13.428;2022-10-22T10:50:16;2.70;;;2.40;;
4464;SDS011;2245;48.136;13.428;2022-10-22T10:56:13;1.93;;;1.83;;
4464;SDS011;2245;48.136;13.428;2022-10-22T10:58:49;2.80;;;1.87;;
4464;SDS011;2245;48.136;13.428;2022-10-22T11:01:21;4.03;;;1.93;;
4464;SDS011;2245;48.136;13.428;2022-10-22T11:04:03;2.63;;;1.97;;
4464;SDS011;2245;48.136;13.428;2022-10-22T11:06:38;3.53;;;1.37;;
4464;SDS011;2245;48.136;13.428;2022-10-22T11:09:06;3.97;;;1.60;;
4464;SDS011;2245;48.136;13.428;2022-10-22T11:11:47;5.03;;;1.90;;
4464;SDS011;2245;48.136;13.428;2022-10-22T11:14:20;2.70;;;2.40;;
4464;SDS011;2245;48.136;13.428;2022-10-22T11:16:48;3.87;;;3.60;;
4464;SDS011;2245;48.136;13.428;2022-10-22T11:19:31;3.10;;;2.10;;
4464;SDS011;2245;48.136;13.428;2022-10-22T11:22:03;3.53;;;2.83;;
4464;SDS011;2245;48.136;13.428;2022-10-22T11:24:40;2.87;;;2.40;;
4464;SDS011;2245;48.136;13.428;2022-10-22T11:27:20;2.00;;;1.50;;
4464;SDS011;2245;48.136;13.428;2022-10-22T11:29:53;1.30;;;1.23;;
4464;SDS011;2245;48.136;13.428;2022-10-22T11:32:23;1.70;;;1.50;;
4464;SDS011;2245;48.136;13.428;2022-10-22T11:34:52;1.30;;;1.30;;
4464;SDS011;2245;48.136;13.428;2022-10-22T11:37:20;5.23;;;1.63;;
4464;SDS011;2245;48.136;13.428;2022-10-22T11:39:50;2.20;;;1.73;;
4464;SDS011;2245;48.136;13.428;2022-10-22T11:42:21;3.60;;;1.53;;
4464;SDS011;2245;48.136;13.428;2022-10-22T11:44:58;2.20;;;1.00;;
4464;SDS011;2245;48.136;13.428;2022-10-22T11:47:33;4.93;;;1.50;;
4464;SDS011;2245;48.136;13.428;2022-10-22T11:52:53;3.70;;;1.57;;
4464;SDS011;2245;48.136;13.428;2022-10-22T11:55:31;5.03;;;2.23;;
4464;SDS011;2245;48.136;13.428;2022-10-22T11:58:27;1.77;;;1.67;;
4464;SDS011;2245;48.136;13.428;2022-10-22T12:01:25;1.40;;;1.30;;
4464;SDS011;2245;48.136;13.428;2022-10-22T12:06:52;2.80;;;1.47;;
4464;SDS011;2245;48.136;13.428;2022-10-22T12:09:26;1.30;;;1.23;;
4464;SDS011;2245;48.136;13.428;2022-10-22T12:12:02;1.17;;;1.07;;
4464;SDS011;2245;48.136;13.428;2022-10-22T12:14:49;1.60;;;1.50;;
4464;SDS011;2245;48.136;13.428;2022-10-22T12:17:32;1.23;;;1.07;;
4464;SDS011;2245;48.136;13.428;2022-10-22T12:20:17;1.27;;;1.17;;
4464;SDS011;2245;48.136;13.428;2022-10-22T12:25:59;1.07;;;0.87;;
4464;SDS011;2245;48.136;13.428;2022-10-22T12:28:36;2.20;;;1.30;;
4464;SDS011;2245;48.136;13.428;2022-10-22T12:31:12;1.27;;;1.10;;
4464;SDS011;2245;48.136;13.428;2022-10-22T12:33:56;2.63;;;1.80;;
4464;SDS011;2245;48.136;13.428;2022-10-22T12:36:26;2.57;;;1.33;;
4464;SDS011;2245;48.136;13.428;2022-10-22T12:38:54;1.13;;;1.03;;
4464;SDS011;2245;48.136;13.428;2022-10-22T12:41:21;1.77;;;1.30;;
4464;SDS011;2245;48.136;13.428;2022-10-22T12:44:09;4.53;;;1.50;;
4464;SDS011;2245;48.136;13.428;2022-10-22T12:46:43;1.40;;;1.30;;
4464;SDS011;2245;48.136;13.428;2022-10-22T12:49:13;1.47;;;1.37;;
4464;SDS011;2245;48.136;13.428;2022-10-22T12:51:43;4.37;;;1.97;;
4464;SDS011;2245;48.136;13.428;2022-10-22T12:54:13;2.53;;;1.90;;
4464;SDS011;2245;48.136;13.428;2022-10-22T12:56:47;2.20;;;1.90;;
4464;SDS011;2245;48.136;13.428;2022-10-22T12:59:19;2.20;;;1.63;;
4464;SDS011;2245;48.136;13.428;2022-10-22T13:02:15;2.87;;;2.07;;
4464;SDS011;2245;48.136;13.428;2022-10-22T13:07:43;3.00;;;2.50;;
4464;SDS011;2245;48.136;13.428;2022-10-22T13:10:23;2.40;;;2.20;;
4464;SDS011;2245;48.136;13.428;2022-10-22T13:12:57;6.63;;;2.90;;
4464;SDS011;2245;48.136;13.428;2022-10-22T13:15:32;2.83;;;2.33;;
4464;SDS011;2245;48.136;13.428;2022-10-22T13:18:06;1.70;;;1.57;;
4464;SDS011;2245;48.136;13.428;2022-10-22T13:20:51;5.87;;;2.67;;
4464;SDS011;2245;48.136;13.428;2022-10-22T13:26:29;2.30;;;1.97;;
4464;SDS011;2245;48.136;13.428;2022-10-22T13:29:08;2.27;;;2.07;;
4464;SDS011;2245;48.136;13.428;2022-10-22T13:31:46;3.20;;;2.03;;
4464;SDS011;2245;48.136;13.428;2022-10-22T13:34:19;5.03;;;1.90;;
4464;SDS011;2245;48.136;13.428;2022-10-22T13:36:48;6.90;;;2.03;;
4464;SDS011;2245;48.136;13.428;2022-10-22T13:39:20;11.13;;;2.20;;
4464;SDS011;2245;48.136;13.428;2022-10-22T13:41:48;2.80;;;1.80;;
4464;SDS011;2245;48.136;13.428;2022-10-22T13:44:18;2.27;;;2.07;;
4464;SDS011;2245;48.136;13.428;2022-10-22T13:47:00;3.70;;;1.60;;
4464;SDS011;2245;48.136;13.428;2022-10-22T13:49:29;3.10;;;1.57;;
4464;SDS011;2245;48.136;13.428;2022-10-22T13:51:55;2.97;;;1.70;;
4464;SDS011;2245;48.136;13.428;2022-10-22T13:54:28;2.70;;;2.50;;
4464;SDS011;2245;48.136;13.428;2022-10-22T13:56:55;2.30;;;1.67;;
4464;SDS011;2245;48.136;13.428;2022-10-22T13:59:31;1.83;;;1.43;;
4464;SDS011;2245;48.136;13.428;2022-10-22T14:02:06;1.57;;;1.47;;
4464;SDS011;2245;48.136;13.428;2022-10-22T14:04:37;1.47;;;1.17;;
4464;SDS011;2245;48.136;13.428;2022-10-22T14:07:13;1.40;;;1.30;;
4464;SDS011;2245;48.136;13.428;2022-10-22T14:09:43;1.90;;;1.67;;
4464;SDS011;2245;48.136;13.428;2022-10-22T14:12:20;2.20;;;1.60;;
4464;SDS011;2245;48.136;13.428;2022-10-22T14:14:49;1.30;;;1.20;;
4464;SDS011;2245;48.136;13.428;2022-10-22T14:17:16;4.80;;;1.67;;
4464;SDS011;2245;48.136;13.428;2022-10-22T14:19:45;1.27;;;1.20;;
4464;SDS011;2245;48.136;13.428;2022-10-22T14:22:19;1.93;;;1.70;;
4464;SDS011;2245;48.136;13.428;2022-10-22T14:24:46;2.77;;;1.90;;
4464;SDS011;2245;48.136;13.428;2022-10-22T14:27:16;1.67;;;1.57;;
4464;SDS011;2245;48.136;13.428;2022-10-22T14:30:12;1.50;;;1.40;;
4464;SDS011;2245;48.136;13.428;2022-10-22T14:32:42;1.93;;;1.43;;
4464;SDS011;2245;48.136;13.428;2022-10-22T14:35:12;2.10;;;1.03;;
4464;SDS011;2245;48.136;13.428;2022-10-22T14:44:29;3.30;;;3.00;;
4464;SDS011;2245;48.136;13.428;2022-10-22T14:46:59;1.67;;;1.53;;
4464;SDS011;2245;48.136;13.428;2022-10-22T14:49:26;1.70;;;1.60;;
4464;SDS011;2245;48.136;13.428;2022-10-22T14:51:54;1.70;;;1.60;;
4464;SDS011;2245;48.136;13.428;2022-10-22T14:54:22;1.30;;;1.20;;
4464;SDS011;2245;48.136;13.428;2022-10-22T14:56:51;3.40;;;1.50;;
4464;SDS011;2245;48.136;13.428;2022-10-22T14:59:21;3.27;;;2.07;;
4464;SDS011;2245;48.136;13.428;2022-10-22T15:01:48;2.13;;;2.00;;
4464;SDS011;2245;48.136;13.428;2022-10-22T15:04:15;1.83;;;1.77;;
4464;SDS011;2245;48.136;13.428;2022-10-22T15:06:45;2.70;;;2.50;;
4464;SDS011;2245;48.136;13.428;2022-10-22T15:09:14;1.27;;;1.17;;
4464;SDS011;2245;48.136;13.428;2022-10-22T15:11:41;3.40;;;2.00;;
4464;SDS011;2245;48.136;13.428;2022-10-22T15:14:10;4.30;;;3.37;;
4464;SDS011;2245;48.136;13.428;2022-10-22T15:16:39;2.53;;;2.10;;
4464;SDS011;2245;48.136;13.428;2022-10-22T15:19:06;4.60;;;3.63;;
4464;SDS011;2245;48.136;13.428;2022-10-22T15:21:36;5.90;;;4.87;;
4464;SDS011;2245;48.136;13.428;2022-10-22T15:24:06;7.50;;;4.67;;
4464;SDS011;2245;48.136;13.428;2022-10-22T15:26:36;6.23;;;5.27;;
4464;SDS011;2245;48.136;13.428;2022-10-22T15:29:03;10.93;;;6.20;;
4464;SDS011;2245;48.136;13.428;2022-10-22T15:31:41;9.33;;;6.10;;
4464;SDS011;2245;48.136;13.428;2022-10-22T15:34:18;5.23;;;2.30;;
4464;SDS011;2245;48.136;13.428;2022-10-22T15:36:45;2.20;;;2.00;;
4464;SDS011;2245;48.136;13.428;2022-10-22T15:39:14;10.43;;;6.50;;
4464;SDS011;2245;48.136;13.428;2022-10-22T15:41:43;9.07;;;4.97;;
4464;SDS011;2245;48.136;13.428;2022-10-22T15:44:13;31.67;;;11.90;;
4464;SDS011;2245;48.136;13.428;2022-10-22T15:46:45;15.97;;;9.00;;
4464;SDS011;2245;48.136;13.428;2022-10-22T15:49:12;12.17;;;7.30;;
4464;SDS011;2245;48.136;13.428;2022-10-22T15:51:40;13.20;;;9.80;;
4464;SDS011;2245;48.136;13.428;2022-10-22T15:54:12;16.00;;;11.43;;
4464;SDS011;2245;48.136;13.428;2022-10-22T15:56:40;15.77;;;11.73;;
4464;SDS011;2245;48.136;13.428;2022-10-22T15:59:10;11.60;;;9.20;;
4464;SDS011;2245;48.136;13.428;2022-10-22T16:01:38;17.80;;;8.47;;
4464;SDS011;2245;48.136;13.428;2022-10-22T16:04:05;13.80;;;9.30;;
4464;SDS011;2245;48.136;13.428;2022-10-22T16:06:34;12.77;;;9.40;;
4464;SDS011;2245;48.136;13.428;2022-10-22T16:09:05;17.17;;;10.07;;
4464;SDS011;2245;48.136;13.428;2022-10-22T16:11:36;19.50;;;9.80;;
4464;SDS011;2245;48.136;13.428;2022-10-22T16:14:04;14.77;;;11.00;;
4464;SDS011;2245;48.136;13.428;2022-10-22T16:16:33;13.80;;;10.60;;
4464;SDS011;2245;48.136;13.428;2022-10-22T16:19:03;15.60;;;9.73;;
4464;SDS011;2245;48.136;13.428;2022-10-22T16:21:33;12.33;;;8.40;;
4464;SDS011;2245;48.136;13.428;2022-10-22T16:24:02;8.60;;;6.43;;
4464;SDS011;2245;48.136;13.428;2022-10-22T16:26:29;14.00;;;8.60;;
4464;SDS011;2245;48.136;13.428;2022-10-22T16:28:56;11.90;;;7.23;;
4464;SDS011;2245;48.136;13.428;2022-10-22T16:31:25;12.93;;;4.00;;
4464;SDS011;2245;48.136;13.428;2022-10-22T16:33:56;29.53;;;14.17;;
4464;SDS011;2245;48.136;13.428;2022-10-22T16:36:27;17.07;;;8.80;;
4464;SDS011;2245;48.136;13.428;2022-10-22T16:38:56;27.80;;;16.73;;